MDT,Max TemperatureF,Mean TemperatureF,Min TemperatureF,Max Dew PointF,MeanDew PointF,Min DewpointF,Max Humidity, Mean Humidity, Min Humidity, Max Sea Level PressureIn, Mean Sea Level PressureIn, Min Sea Level PressureIn, Max VisibilityMiles, Mean VisibilityMiles, Min VisibilityMiles, Max Wind SpeedMPH, Mean Wind SpeedMPH, Max Gust SpeedMPH,PrecipitationIn, CloudCover, Events, WindDirDegrees
2013-8-1,78,64,51,55,48,45,82,52,34,30.14,30.06,29.98,10,10,10,17,6,23,0.05,1,,46
2013-8-2,69,63,57,57,54,52,88,75,56,30.13,30.04,29.98,10,10,8,21,10,26,0.17,5,,66
2013-8-3,82,68,53,59,55,50,88,68,42,30.18,30.12,29.99,10,10,5,30,10,33,0.30,2,Thunderstorm,90
2013-8-4,75,64,53,61,56,52,94,75,50,30.08,30.04,30.00,10,10,10,13,5,,0.30,2,,312
2013-8-5,82,68,53,61,55,50,94,66,39,30.03,29.93,29.79,10,10,9,18,5,30,0.00,0,Thunderstorm,178
2013-8-6,78,68,57,55,54,48,94,66,36,30.01,29.91,29.83,10,10,10,21,11,34,0.00,2,,303
2013-8-7,71,62,53,54,49,43,94,67,40,30.09,30.06,30.03,10,10,5,18,9,22,0.00,3,,36
2013-8-8,75,62,48,50,45,43,87,56,34,30.16,30.11,30.08,10,10,10,15,8,,0.00,0,,43
2013-8-9,73,63,53,48,47,46,77,57,41,30.24,30.20,30.16,10,10,10,15,11,18,0.00,1,,53
2013-8-10,80,66,53,57,52,46,88,64,45,30.19,30.11,30.02,10,10,10,21,9,30,0.00,1,,80
2013-8-11,80,68,55,57,56,54,94,69,44,30.16,30.12,30.07,10,8,0,14,9,18,0.00,2,,71
2013-8-12,82,70,57,59,55,52,82,62,42,30.15,30.11,30.08,10,10,7,15,9,21,0.00,0,,69
2013-8-13,82,70,57,63,55,50,77,61,37,30.17,30.13,30.07,10,10,8,17,8,22,0.00,0,Thunderstorm,127
2013-8-14,75,66,57,59,56,54,94,73,50,30.12,30.07,30.02,10,10,2,20,7,24,0.19,1,Thunderstorm,219
2013-8-15,84,68,51,57,54,48,88,58,33,30.08,30.04,30.01,10,10,10,8,4,,0.00,0,,178
2013-8-16,91,75,59,63,58,54,88,62,29,30.04,29.99,29.93,10,10,5,15,9,20,0.00,0,,169
2013-8-17,89,74,60,61,58,55,88,60,33,29.95,29.91,29.88,10,10,9,17,10,21,0.00,0,,244
2013-8-18,87,73,59,61,53,48,88,55,25,30.05,29.95,29.92,10,10,5,31,8,39,0.00,1,,285
2013-8-19,91,74,57,61,51,45,82,46,20,29.95,29.89,29.84,10,10,7,14,8,20,0.00,0,,243
2013-8-20,91,74,57,52,48,45,67,41,20,29.89,29.85,29.81,10,10,10,20,8,26,0.00,0,,271
2013-8-21,,,,,,,,,,,,,,,,,,,,,,
2013-8-22,,,,,,,,,,,,,,,,,,,,,,
2013-8-23,93,83,73,61,54,52,50,35,24,29.77,29.73,29.71,10,10,10,10,4,,0.00,0,,342
2013-8-24,89,76,64,61,53,48,68,45,24,29.91,29.80,29.71,10,10,7,18,7,25,0.00,2,,284
2013-8-25,87,71,55,64,55,48,88,56,33,29.99,29.94,29.90,10,10,4,13,6,,0.00,0,Thunderstorm,128
2013-8-26,96,81,66,63,57,52,78,49,22,29.93,29.90,29.85,10,10,10,13,5,20,0.00,0,,354
2013-8-27,91,78,66,64,59,55,88,57,31,,,,10,10,5,13,5,22,0.02,1,,98
2013-8-28,91,76,62,66,63,57,94,65,36,,,,10,10,10,28,5,36,0.02,1,Thunderstorm,116
2013-8-29,89,74,60,66,60,54,94,65,29,30.03,30.00,29.93,10,10,9,13,6,17,0.00,0,Thunderstorm,323
2013-8-30,93,76,60,61,57,54,88,55,26,30.02,29.95,29.86,10,10,9,12,4,20,0.00,0,,259
2013-8-31,78,68,57,55,47,39,72,45,24,30.08,30.00,29.88,10,10,10,24,13,31,0.00,1,Thunderstorm,316